Time;durP1;ratioP1;P1;durP2;ratioP2;P2;SDS_P1;SDS_P2;PMS_P1;PMS_P2;Temp;Humidity;BMP_temperature;BMP_pressure;BME280_temperature;BME280_humidity;BME280_pressure;Samples;Min_cycle;Max_cycle;Signal;HPM_P1;HPM_P2
2024/01/14 00:01:20;;;;;;;30.80;26.45;;;12.20;99.90;;;;;;5044918;28;20507;-63
2024/01/14 00:03:46;;;;;;;34.92;28.35;;;12.20;99.90;;;;;;5047215;28;20048;-63
2024/01/14 00:06:12;;;;;;;47.97;29.73;;;12.20;99.90;;;;;;5046568;28;20128;-63
2024/01/14 00:08:37;;;;;;;58.75;39.53;;;12.10;99.90;;;;;;5046533;28;20037;-64
2024/01/14 00:11:03;;;;;;;37.38;30.77;;;12.00;99.90;;;;;;5047148;28;20558;-63
2024/01/14 00:13:29;;;;;;;33.05;29.70;;;11.90;99.90;;;;;;5046808;28;20044;-64
2024/01/14 00:15:55;;;;;;;37.13;31.55;;;12.10;99.90;;;;;;5045737;28;20518;-63
2024/01/14 00:18:20;;;;;;;35.75;31.05;;;12.00;99.90;;;;;;5046399;28;20407;-64
2024/01/14 00:20:46;;;;;;;36.80;32.70;;;11.80;99.90;;;;;;5046691;28;20562;-62
2024/01/14 00:23:11;;;;;;;42.20;28.98;;;12.00;99.90;;;;;;5045310;28;20491;-63
2024/01/14 00:25:37;;;;;;;36.55;31.58;;;11.80;99.90;;;;;;5046514;28;20498;-63
2024/01/14 00:28:03;;;;;;;38.80;31.20;;;12.00;99.90;;;;;;5046607;28;20511;-64
2024/01/14 00:30:29;;;;;;;34.88;31.20;;;11.70;99.90;;;;;;5046724;28;20550;-63
2024/01/14 00:32:54;;;;;;;38.10;33.15;;;12.00;99.90;;;;;;5045479;28;20442;-63
2024/01/14 00:35:20;;;;;;;37.95;30.88;;;12.10;99.90;;;;;;5046780;28;20048;-64
2024/01/14 00:37:45;;;;;;;54.72;41.83;;;12.10;99.90;;;;;;5045260;28;20149;-63
2024/01/14 00:40:11;;;;;;;45.72;35.65;;;12.20;99.90;;;;;;5046333;28;20605;-65
2024/01/14 00:42:37;;;;;;;40.78;32.40;;;12.10;99.90;;;;;;5044678;28;20564;-63
2024/01/14 00:45:03;;;;;;;42.33;36.13;;;12.40;99.90;;;;;;5045763;28;20044;-63
2024/01/14 00:47:30;;;;;;;48.45;36.67;;;11.90;99.90;;;;;;5026263;28;20123;-63
2024/01/14 00:49:56;;;;;;;43.53;37.67;;;12.00;99.90;;;;;;5026310;28;20547;-63
2024/01/14 00:52:22;;;;;;;45.00;35.53;;;11.70;99.90;;;;;;5026374;28;20041;-63
2024/01/14 00:54:47;;;;;;;51.55;37.50;;;11.70;99.90;;;;;;5026757;28;20059;-63
2024/01/14 00:57:13;;;;;;;43.08;38.47;;;11.80;99.90;;;;;;5044726;28;20390;-63
2024/01/14 00:59:40;;;;;;;49.40;38.67;;;11.50;99.90;;;;;;5045801;28;20072;-62
2024/01/14 01:02:05;;;;;;;44.30;39.25;;;11.80;99.90;;;;;;5045011;28;20142;-63
2024/01/14 01:04:31;;;;;;;49.20;38.22;;;11.50;99.90;;;;;;5044782;28;20087;-63
2024/01/14 01:06:56;;;;;;;47.92;34.38;;;11.50;99.90;;;;;;5046074;28;20036;-63
2024/01/14 01:09:22;;;;;;;37.90;31.65;;;11.90;99.90;;;;;;5046213;28;20115;-62
2024/01/14 01:11:47;;;;;;;38.03;33.65;;;11.80;99.90;;;;;;5045893;28;20029;-64
2024/01/14 01:14:15;;;;;;;36.92;32.90;;;11.50;99.90;;;;;;5045460;28;20040;-63
2024/01/14 01:16:40;;;;;;;40.47;36.45;;;11.40;99.90;;;;;;5042896;28;20049;-62
2024/01/14 01:19:06;;;;;;;64.10;34.88;;;11.60;99.90;;;;;;5044084;28;20548;-63
2024/01/14 01:21:32;;;;;;;35.60;31.92;;;11.20;99.90;;;;;;5045492;28;20523;-62
2024/01/14 01:23:58;;;;;;;34.35;30.88;;;11.50;99.90;;;;;;5045256;28;20087;-63
2024/01/14 01:26:24;;;;;;;37.60;32.55;;;11.80;99.90;;;;;;5045291;28;20082;-63
2024/01/14 01:28:49;;;;;;;43.08;31.52;;;11.30;99.90;;;;;;5045393;28;20044;-62
2024/01/14 01:31:15;;;;;;;42.42;32.60;;;11.50;99.90;;;;;;5045958;28;20678;-63
2024/01/14 01:33:41;;;;;;;38.70;34.58;;;11.40;99.90;;;;;;5044424;28;20554;-63
2024/01/14 01:36:07;;;;;;;40.90;36.78;;;11.30;99.90;;;;;;5043997;28;20052;-62
2024/01/14 01:38:33;;;;;;;44.20;32.60;;;11.30;99.90;;;;;;5045783;28;20414;-62
2024/01/14 01:40:59;;;;;;;39.53;34.42;;;11.60;99.90;;;;;;5044256;28;20052;-62
2024/01/14 01:43:24;;;;;;;44.80;33.53;;;11.40;99.90;;;;;;5045477;28;20044;-62
2024/01/14 01:45:52;;;;;;;45.42;36.05;;;11.70;99.90;;;;;;5027667;28;20040;-64
2024/01/14 01:48:19;;;;;;;42.58;34.63;;;11.60;99.90;;;;;;5045776;28;20415;-64
2024/01/14 01:50:45;;;;;;;41.33;36.33;;;11.60;99.90;;;;;;5045010;28;20507;-64
2024/01/14 01:53:11;;;;;;;46.25;35.70;;;11.70;99.90;;;;;;5046343;28;20775;-62
2024/01/14 01:55:37;;;;;;;59.85;42.55;;;11.70;99.90;;;;;;5045190;28;20095;-62
2024/01/14 01:58:02;;;;;;;69.32;45.78;;;11.60;99.90;;;;;;5044997;28;20041;-65
2024/01/14 02:00:29;;;;;;;50.42;36.22;;;11.60;99.90;;;;;;5045315;28;20068;-63
2024/01/14 02:02:55;;;;;;;62.70;43.92;;;11.80;99.90;;;;;;5045727;28;20045;-63
2024/01/14 02:05:21;;;;;;;56.72;35.97;;;11.70;99.90;;;;;;5045288;28;20593;-62
2024/01/14 02:07:47;;;;;;;45.38;39.55;;;11.50;99.90;;;;;;5045628;28;20045;-63
2024/01/14 02:10:13;;;;;;;46.13;41.47;;;11.50;99.90;;;;;;5045852;28;20052;-61
2024/01/14 02:12:38;;;;;;;50.58;37.25;;;11.50;99.90;;;;;;5045322;28;20120;-63
2024/01/14 02:15:05;;;;;;;39.70;34.75;;;11.50;99.90;;;;;;5044490;28;20362;-62
2024/01/14 02:17:30;;;;;;;47.17;35.15;;;11.30;99.90;;;;;;5045507;28;20051;-64
2024/01/14 02:19:56;;;;;;;54.03;38.42;;;11.60;99.90;;;;;;5044848;28;20037;-63
2024/01/14 02:22:27;;;;;;;46.13;40.53;;;11.50;99.90;;;;;;5044284;28;20036;-62
2024/01/14 02:24:53;;;;;;;42.05;37.47;;;11.50;99.90;;;;;;5046889;28;20059;-63
2024/01/14 02:27:19;;;;;;;47.33;38.40;;;11.20;99.90;;;;;;5048864;28;20097;-64
2024/01/14 02:29:46;;;;;;;58.25;41.05;;;11.50;99.90;;;;;;5048087;28;20035;-63
2024/01/14 02:32:12;;;;;;;59.08;38.35;;;11.40;99.90;;;;;;5040739;28;20355;-63
2024/01/14 02:34:37;;;;;;;53.10;41.53;;;11.40;99.90;;;;;;5048329;28;20526;-63
2024/01/14 02:37:03;;;;;;;48.20;41.65;;;11.20;99.90;;;;;;5047050;28;20048;-63
2024/01/14 02:39:29;;;;;;;54.38;43.25;;;12.20;99.90;;;;;;5048971;28;20045;-63
2024/01/14 02:41:55;;;;;;;59.30;46.08;;;11.20;99.90;;;;;;5047615;28;20138;-63
2024/01/14 02:44:20;;;;;;;49.38;42.35;;;11.40;99.90;;;;;;5048781;28;20049;-63
2024/01/14 02:46:46;;;;;;;62.53;42.00;;;11.40;99.90;;;;;;5046677;28;20578;-63
2024/01/14 02:49:12;;;;;;;50.83;42.17;;;11.10;99.90;;;;;;5048148;28;20562;-63
2024/01/14 02:51:37;;;;;;;42.38;37.90;;;11.10;99.90;;;;;;5048381;28;20514;-63
2024/01/14 02:54:03;;;;;;;53.60;41.40;;;11.30;99.90;;;;;;5048508;28;20072;-63
2024/01/14 02:56:29;;;;;;;56.40;43.33;;;11.40;99.90;;;;;;5048277;28;20048;-63
2024/01/14 02:58:55;;;;;;;51.63;42.70;;;11.40;99.90;;;;;;5046982;28;20053;-63
2024/01/14 03:01:20;;;;;;;58.92;44.60;;;11.10;99.90;;;;;;5047509;28;20091;-63
2024/01/14 03:03:47;;;;;;;49.00;40.78;;;11.30;99.90;;;;;;5045948;28;20111;-64
2024/01/14 03:06:12;;;;;;;53.08;40.63;;;11.50;99.90;;;;;;5048188;28;20045;-64
2024/01/14 03:08:39;;;;;;;45.25;38.85;;;11.50;99.90;;;;;;5046496;28;20426;-63
2024/01/14 03:11:04;;;;;;;55.92;39.92;;;11.40;99.90;;;;;;5048165;28;20052;-62
2024/01/14 03:13:30;;;;;;;52.03;43.97;;;11.70;99.90;;;;;;5046786;28;20045;-63
2024/01/14 03:15:56;;;;;;;56.13;42.90;;;11.50;99.90;;;;;;5048379;28;20143;-63
2024/01/14 03:18:21;;;;;;;55.88;46.30;;;12.20;99.90;;;;;;5047544;28;20037;-63
2024/01/14 03:20:47;;;;;;;61.10;48.08;;;11.90;99.90;;;;;;5047632;28;20033;-63
2024/01/14 03:23:12;;;;;;;58.22;45.88;;;11.50;99.90;;;;;;5047749;28;20491;-64
2024/01/14 03:25:38;;;;;;;74.35;49.03;;;11.90;99.90;;;;;;5046527;28;20053;-63
2024/01/14 03:28:04;;;;;;;53.65;45.33;;;11.60;99.90;;;;;;5047776;28;20048;-64
2024/01/14 03:30:30;;;;;;;48.70;38.85;;;11.90;99.90;;;;;;5048003;28;20063;-64
2024/01/14 03:32:55;;;;;;;44.03;36.28;;;11.80;99.90;;;;;;5043856;28;20466;-64
2024/01/14 03:35:21;;;;;;;38.35;32.25;;;11.60;99.90;;;;;;5037509;28;20048;-63
2024/01/14 03:37:46;;;;;;;56.20;41.33;;;11.80;99.90;;;;;;5046598;28;20045;-63
2024/01/14 03:40:12;;;;;;;37.13;33.38;;;11.50;99.90;;;;;;5047539;28;20041;-64
2024/01/14 03:42:38;;;;;;;37.30;32.97;;;11.70;99.90;;;;;;5046961;28;20059;-63
2024/01/14 03:45:04;;;;;;;40.25;36.05;;;11.50;99.90;;;;;;5047367;28;20045;-63
2024/01/14 03:47:30;;;;;;;40.58;34.58;;;11.40;99.90;;;;;;5047360;28;20060;-63
2024/01/14 03:49:55;;;;;;;39.80;35.67;;;11.20;99.90;;;;;;5047351;28;20041;-63
2024/01/14 03:52:21;;;;;;;48.08;37.03;;;11.00;99.90;;;;;;5047044;28;20045;-63
2024/01/14 03:54:47;;;;;;;44.55;40.40;;;11.10;99.90;;;;;;5048118;28;20040;-63
2024/01/14 03:57:13;;;;;;;43.85;39.30;;;10.80;99.90;;;;;;5045607;28;20047;-63
2024/01/14 03:59:39;;;;;;;56.00;49.97;;;10.80;99.90;;;;;;5047504;28;20061;-63
2024/01/14 04:02:04;;;;;;;51.22;44.00;;;10.80;99.90;;;;;;5048048;28;20044;-62
2024/01/14 04:04:30;;;;;;;52.30;45.20;;;10.90;99.90;;;;;;5046932;28;20416;-63
2024/01/14 04:06:56;;;;;;;57.53;44.28;;;11.00;99.90;;;;;;5047056;28;20513;-62
2024/01/14 04:09:21;;;;;;;48.08;42.58;;;10.80;99.90;;;;;;5046644;28;20037;-63
2024/01/14 04:11:47;;;;;;;50.50;45.20;;;10.60;99.90;;;;;;5046890;28;20083;-62
2024/01/14 04:14:12;;;;;;;59.17;47.30;;;10.70;99.90;;;;;;5046862;28;20040;-63
2024/01/14 04:16:39;;;;;;;61.25;49.78;;;10.40;99.90;;;;;;5047125;28;20143;-62
2024/01/14 04:19:05;;;;;;;66.93;52.67;;;10.40;99.90;;;;;;5046868;28;20056;-63
2024/01/14 04:21:32;;;;;;;61.55;54.92;;;10.70;99.90;;;;;;5046714;28;20047;-63
2024/01/14 04:24:04;;;;;;;76.40;53.58;;;10.50;99.90;;;;;;5046940;28;20041;-63
2024/01/14 04:26:30;;;;;;;51.35;44.78;;;10.80;99.90;;;;;;5046740;28;20468;-63
2024/01/14 04:28:57;;;;;;;64.38;47.33;;;10.80;99.90;;;;;;5045190;28;20068;-63
2024/01/14 04:31:22;;;;;;;62.22;44.35;;;11.00;99.90;;;;;;5032258;28;20049;-63
2024/01/14 04:33:48;;;;;;;72.18;50.80;;;11.20;99.90;;;;;;5045970;28;20047;-62
2024/01/14 04:36:17;;;;;;;58.35;47.75;;;11.30;99.90;;;;;;5046953;28;20090;-63
2024/01/14 04:38:43;;;;;;;68.20;54.28;;;11.00;99.90;;;;;;5061806;28;20045;-63
2024/01/14 04:41:09;;;;;;;55.05;46.65;;;11.10;1.00;;;;;;5046081;28;20502;-63
2024/01/14 04:43:36;;;;;;;52.78;46.85;;;11.80;99.90;;;;;;5046067;28;20168;-63
2024/01/14 04:46:02;;;;;;;54.22;44.00;;;11.10;1.00;;;;;;5046739;28;20457;-64
2024/01/14 04:48:28;;;;;;;57.42;42.13;;;11.50;99.90;;;;;;5045859;28;20051;-62
2024/01/14 04:50:53;;;;;;;43.15;38.72;;;11.80;99.90;;;;;;5046267;28;20499;-63
2024/01/14 04:53:19;;;;;;;42.85;38.45;;;11.40;99.90;;;;;;5043561;28;20484;-62
2024/01/14 04:55:45;;;;;;;49.13;40.60;;;11.60;99.90;;;;;;5045315;28;20098;-66
2024/01/14 04:58:11;;;;;;;55.13;42.67;;;11.50;99.90;;;;;;5044568;28;20505;-63
2024/01/14 05:00:36;;;;;;;58.97;45.45;;;11.20;99.90;;;;;;5045971;28;20060;-63
2024/01/14 05:03:02;;;;;;;50.05;42.90;;;11.40;99.90;;;;;;5045920;28;20048;-63
2024/01/14 05:05:28;;;;;;;50.10;39.85;;;11.20;99.90;;;;;;5044711;28;20059;-63
2024/01/14 05:07:54;;;;;;;42.83;38.33;;;11.20;99.90;;;;;;5044735;28;20906;-63
2024/01/14 05:10:19;;;;;;;52.35;45.65;;;11.00;99.90;;;;;;5046150;28;20499;-62
2024/01/14 05:12:45;;;;;;;43.70;39.25;;;11.40;99.90;;;;;;5045113;28;20045;-63
2024/01/14 05:15:10;;;;;;;45.28;40.97;;;11.30;99.90;;;;;;5045568;28;20041;-62
2024/01/14 05:17:36;;;;;;;47.40;42.53;;;11.40;99.90;;;;;;5045685;28;20083;-63
2024/01/14 05:20:02;;;;;;;50.17;44.30;;;11.30;99.90;;;;;;5045941;28;20047;-62
2024/01/14 05:22:28;;;;;;;54.50;43.97;;;11.10;99.90;;;;;;5045926;28;20540;-63
2024/01/14 05:24:54;;;;;;;56.67;43.28;;;11.00;99.90;;;;;;5045734;28;20080;-64
2024/01/14 05:27:19;;;;;;;50.83;41.25;;;11.00;99.90;;;;;;5045605;28;20651;-63
2024/01/14 05:29:45;;;;;;;44.83;37.78;;;11.00;99.90;;;;;;5044925;28;20040;-61
2024/01/14 05:32:13;;;;;;;53.78;40.42;;;11.30;99.90;;;;;;5043943;28;20041;-62
2024/01/14 05:34:39;;;;;;;53.03;42.60;;;11.20;99.90;;;;;;5045715;28;20044;-64
2024/01/14 05:37:05;;;;;;;52.08;44.90;;;11.20;99.90;;;;;;5045608;28;20048;-62
2024/01/14 05:39:35;;;;;;;58.45;43.75;;;11.00;1.00;;;;;;5045325;28;20521;-63
2024/01/14 05:42:01;;;;;;;60.40;43.60;;;11.40;1.00;;;;;;5045680;28;20563;-62
2024/01/14 05:44:26;;;;;;;76.30;46.42;;;11.20;1.00;;;;;;5045908;28;20511;-62
2024/01/14 05:46:53;;;;;;;64.72;44.83;;;11.00;1.00;;;;;;5045271;28;20037;-63
2024/01/14 05:49:19;;;;;;;66.05;44.90;;;11.20;1.00;;;;;;5044739;28;20135;-63
2024/01/14 05:51:44;;;;;;;62.00;43.92;;;11.30;1.00;;;;;;5045261;28;20049;-63
2024/01/14 05:54:10;;;;;;;66.78;47.63;;;11.00;1.00;;;;;;5045511;28;20514;-63
2024/01/14 05:56:36;;;;;;;58.78;48.63;;;11.10;1.00;;;;;;5045206;28;20499;-63
2024/01/14 05:59:01;;;;;;;55.55;49.55;;;11.00;1.00;;;;;;5044284;28;20048;-63
2024/01/14 06:01:28;;;;;;;62.22;50.90;;;11.10;1.00;;;;;;5049024;28;20060;-62
2024/01/14 06:03:54;;;;;;;64.35;49.40;;;11.10;1.00;;;;;;5049270;28;20124;-62
2024/01/14 06:06:20;;;;;;;60.65;49.15;;;11.00;1.00;;;;;;5049611;28;20036;-63
2024/01/14 06:08:46;;;;;;;62.53;49.92;;;11.30;1.00;;;;;;5048932;28;20521;-63
2024/01/14 06:11:13;;;;;;;66.95;50.42;;;11.10;1.00;;;;;;5047906;28;20075;-63
2024/01/14 06:13:39;;;;;;;57.47;49.95;;;11.10;1.00;;;;;;5049472;28;20045;-62
2024/01/14 06:16:04;;;;;;;66.93;50.35;;;11.20;1.00;;;;;;5047787;28;20036;-62
2024/01/14 06:18:30;;;;;;;64.88;49.78;;;11.30;1.00;;;;;;5049803;28;20040;-63
2024/01/14 06:20:59;;;;;;;75.65;51.58;;;11.30;1.00;;;;;;5048072;28;20056;-63
2024/01/14 06:23:25;;;;;;;59.25;47.28;;;11.00;1.00;;;;;;5049170;28;20475;-64
2024/01/14 06:25:50;;;;;;;50.33;44.90;;;11.50;1.00;;;;;;5049686;28;20083;-65
2024/01/14 06:28:16;;;;;;;54.35;43.90;;;11.00;1.00;;;;;;5048887;28;20065;-63
2024/01/14 06:30:41;;;;;;;49.97;40.63;;;11.20;1.00;;;;;;5048940;28;20521;-64
2024/01/14 06:33:07;;;;;;;54.03;43.03;;;11.20;1.00;;;;;;5047606;28;20546;-65
2024/01/14 06:35:33;;;;;;;60.63;45.53;;;11.10;1.00;;;;;;5048719;28;20040;-62
2024/01/14 06:37:58;;;;;;;62.30;48.67;;;11.20;1.00;;;;;;5048920;28;20051;-62
2024/01/14 06:40:24;;;;;;;61.05;48.88;;;11.00;1.00;;;;;;5049033;28;20457;-63
2024/01/14 06:42:49;;;;;;;55.90;44.22;;;10.90;1.00;;;;;;5049130;28;20414;-62
2024/01/14 06:45:15;;;;;;;61.63;46.92;;;11.00;1.00;;;;;;5048619;28;20041;-64
2024/01/14 06:47:40;;;;;;;68.43;54.83;;;10.80;1.00;;;;;;5048883;28;20083;-62
2024/01/14 06:50:07;;;;;;;61.03;47.45;;;10.80;1.00;;;;;;5048474;28;20049;-63
2024/01/14 06:52:33;;;;;;;57.10;50.95;;;11.00;1.00;;;;;;5049520;28;20589;-63
2024/01/14 06:54:58;;;;;;;56.13;49.45;;;10.80;1.00;;;;;;5048592;28;20064;-63
2024/01/14 06:57:24;;;;;;;54.63;46.70;;;10.80;1.00;;;;;;5048728;28;20087;-62
2024/01/14 06:59:49;;;;;;;54.90;49.05;;;10.70;1.00;;;;;;5047028;28;20087;-62
2024/01/14 07:02:15;;;;;;;51.90;45.22;;;10.90;1.00;;;;;;5047279;28;20060;-62
2024/01/14 07:04:41;;;;;;;47.58;42.30;;;10.90;1.00;;;;;;5046319;28;20041;-63
2024/01/14 07:07:08;;;;;;;47.28;42.53;;;11.10;1.00;;;;;;5043351;28;20045;-64
2024/01/14 07:09:34;;;;;;;48.95;42.75;;;10.90;1.00;;;;;;5037622;28;20045;-62
2024/01/14 07:12:00;;;;;;;56.30;50.05;;;11.10;1.00;;;;;;5043869;28;20128;-63
2024/01/14 07:14:26;;;;;;;49.38;44.10;;;11.10;1.00;;;;;;5045281;28;20518;-64
2024/01/14 07:16:52;;;;;;;50.38;43.67;;;11.10;1.00;;;;;;5042162;28;20080;-64
2024/01/14 07:19:17;;;;;;;47.72;43.22;;;11.10;99.90;;;;;;5041731;28;20049;-62
2024/01/14 07:21:43;;;;;;;53.95;40.10;;;10.80;99.90;;;;;;5047721;28;20052;-63
2024/01/14 07:24:08;;;;;;;45.72;40.90;;;11.00;99.90;;;;;;5044645;28;20406;-63
2024/01/14 07:26:34;;;;;;;45.75;40.70;;;10.90;99.90;;;;;;5032902;28;20049;-64
2024/01/14 07:29:00;;;;;;;53.47;40.50;;;11.00;99.90;;;;;;5047966;28;20084;-64
2024/01/14 07:31:30;;;;;;;53.20;39.60;;;10.90;99.90;;;;;;5044597;28;20048;-63
2024/01/14 07:33:56;;;;;;;57.50;40.38;;;10.80;99.90;;;;;;5045415;28;20155;-64
2024/01/14 07:36:22;;;;;;;50.70;43.80;;;10.80;99.90;;;;;;5044608;28;20052;-62
2024/01/14 07:38:49;;;;;;;60.05;47.97;;;11.20;99.90;;;;;;5034401;28;20076;-64
2024/01/14 07:41:15;;;;;;;55.88;44.15;;;11.20;99.90;;;;;;5043928;28;20033;-62
2024/01/14 07:43:41;;;;;;;52.08;46.53;;;11.00;99.90;;;;;;5040258;28;20052;-64
2024/01/14 07:46:07;;;;;;;43.95;38.92;;;11.10;99.90;;;;;;5034023;28;20033;-65
2024/01/14 07:48:33;;;;;;;54.10;41.40;;;11.10;99.90;;;;;;5043540;28;20037;-63
2024/01/14 07:50:59;;;;;;;51.58;43.75;;;11.40;99.90;;;;;;5045524;28;20037;-63
2024/01/14 07:53:25;;;;;;;46.38;41.17;;;11.00;99.90;;;;;;5040841;28;20086;-63
2024/01/14 07:55:51;;;;;;;43.25;37.28;;;11.20;99.90;;;;;;5038327;28;20045;-62
2024/01/14 07:58:17;;;;;;;47.33;37.08;;;11.40;99.90;;;;;;5040769;28;20129;-63
2024/01/14 08:00:44;;;;;;;43.42;35.47;;;11.30;99.90;;;;;;5042753;28;20473;-63
2024/01/14 08:03:09;;;;;;;37.95;32.33;;;11.30;99.90;;;;;;5039139;28;20053;-64
2024/01/14 08:05:38;;;;;;;38.35;34.20;;;11.20;99.90;;;;;;5035245;28;20055;-63
2024/01/14 08:08:07;;;;;;;47.60;36.25;;;11.50;99.90;;;;;;5038750;28;20532;-63
2024/01/14 08:10:32;;;;;;;41.90;34.60;;;11.20;99.90;;;;;;5043878;28;20167;-63
2024/01/14 08:12:58;;;;;;;44.95;36.90;;;11.50;99.90;;;;;;5044999;28;20554;-62
2024/01/14 08:15:24;;;;;;;43.58;37.88;;;11.20;99.90;;;;;;5037233;28;20122;-63
2024/01/14 08:17:50;;;;;;;44.85;37.47;;;11.90;99.90;;;;;;5037960;28;20051;-63
2024/01/14 08:20:15;;;;;;;48.30;39.33;;;11.40;99.90;;;;;;5057303;28;20056;-64
2024/01/14 08:22:41;;;;;;;49.72;39.97;;;11.20;99.90;;;;;;5045738;28;20075;-63
2024/01/14 08:25:07;;;;;;;50.20;39.45;;;11.10;99.90;;;;;;5038462;28;20566;-63
2024/01/14 08:27:33;;;;;;;45.20;40.25;;;11.40;99.90;;;;;;5044757;28;20040;-63
2024/01/14 08:29:59;;;;;;;46.13;37.55;;;11.10;99.90;;;;;;5043519;28;20079;-65
2024/01/14 08:32:25;;;;;;;48.25;37.22;;;11.10;99.90;;;;;;5042207;28;20522;-63
2024/01/14 08:34:50;;;;;;;55.58;45.67;;;11.30;99.90;;;;;;5041618;28;20491;-63
2024/01/14 08:37:16;;;;;;;50.22;39.72;;;11.40;99.90;;;;;;5040396;28;20052;-63
2024/01/14 08:39:42;;;;;;;48.45;39.45;;;11.30;99.90;;;;;;5040243;28;20069;-63
2024/01/14 08:42:08;;;;;;;48.58;39.78;;;11.20;99.90;;;;;;5036953;28;20087;-63
2024/01/14 08:44:34;;;;;;;57.83;41.08;;;11.50;99.90;;;;;;5043926;28;20037;-63
2024/01/14 08:47:01;;;;;;;49.70;41.72;;;11.50;99.90;;;;;;5040776;28;20051;-63
2024/01/14 08:49:29;;;;;;;60.55;41.38;;;11.30;99.90;;;;;;5045587;28;20089;-63
2024/01/14 08:51:58;;;;;;;57.67;41.42;;;11.60;99.90;;;;;;5041289;28;20045;-63
2024/01/14 08:54:24;;;;;;;46.10;37.88;;;11.20;99.90;;;;;;5040420;28;20047;-66
2024/01/14 08:56:49;;;;;;;55.22;43.17;;;11.40;99.90;;;;;;5038393;28;20836;-64
2024/01/14 08:59:15;;;;;;;48.60;39.70;;;11.30;99.90;;;;;;5044725;28;20528;-63
2024/01/14 09:01:40;;;;;;;46.90;38.50;;;11.40;99.90;;;;;;5037946;28;20049;-62
2024/01/14 09:04:06;;;;;;;54.33;39.72;;;12.10;99.90;;;;;;5037130;28;20041;-63
2024/01/14 09:06:32;;;;;;;52.88;40.88;;;11.60;99.90;;;;;;5039515;28;20095;-62
2024/01/14 09:08:57;;;;;;;52.90;35.50;;;11.70;99.90;;;;;;5043482;28;20037;-64
2024/01/14 09:11:23;;;;;;;51.60;38.03;;;11.70;99.90;;;;;;5043478;28;20040;-64
2024/01/14 09:13:48;;;;;;;69.07;40.45;;;11.50;99.90;;;;;;5036249;28;20037;-63
2024/01/14 09:16:14;;;;;;;56.70;40.13;;;11.50;99.90;;;;;;5038301;28;20645;-64
2024/01/14 09:18:40;;;;;;;57.67;47.20;;;11.60;99.90;;;;;;5040688;28;20037;-64
2024/01/14 09:21:05;;;;;;;69.82;52.35;;;11.70;99.90;;;;;;5040935;28;20458;-63
2024/01/14 09:23:31;;;;;;;52.95;43.65;;;11.50;99.90;;;;;;5041834;28;20063;-63
2024/01/14 09:26:01;;;;;;;60.53;44.25;;;11.50;99.90;;;;;;5048423;28;20361;-63
2024/01/14 09:28:28;;;;;;;60.58;44.80;;;11.70;99.90;;;;;;5041175;28;20044;-63
2024/01/14 09:30:53;;;;;;;55.55;41.95;;;11.70;99.90;;;;;;5041369;28;20041;-65
2024/01/14 09:33:19;;;;;;;61.13;48.95;;;11.50;99.90;;;;;;5036395;28;20040;-63
2024/01/14 09:35:44;;;;;;;56.53;46.47;;;11.70;99.90;;;;;;5042279;28;20041;-63
2024/01/14 09:38:10;;;;;;;65.63;51.00;;;11.70;99.90;;;;;;5042770;28;20099;-63
2024/01/14 09:40:36;;;;;;;64.38;48.17;;;11.50;99.90;;;;;;5041955;28;20055;-63
2024/01/14 09:43:09;;;;;;;62.10;48.47;;;11.70;99.90;;;;;;5044061;28;20039;-64
2024/01/14 09:45:35;;;;;;;59.15;46.30;;;11.80;99.90;;;;;;5039076;28;20481;-64
2024/01/14 09:48:01;;;;;;;66.35;49.25;;;13.10;99.90;;;;;;5038692;28;20037;-62
2024/01/14 09:50:27;;;;;;;59.90;45.30;;;11.50;99.90;;;;;;5038292;28;20047;-65
2024/01/14 09:52:57;;;;;;;63.83;47.33;;;11.70;99.90;;;;;;5043587;28;20087;-63
2024/01/14 09:55:24;;;;;;;55.33;42.83;;;11.50;99.90;;;;;;5042687;28;20160;-64
2024/01/14 09:57:52;;;;;;;48.17;38.10;;;11.60;99.90;;;;;;5042484;28;20390;-64
2024/01/14 10:00:22;;;;;;;47.70;40.13;;;12.20;99.90;;;;;;5043234;28;20140;-63
2024/01/14 10:02:48;;;;;;;42.95;36.03;;;11.70;99.90;;;;;;5039513;28;20047;-62
2024/01/14 10:05:17;;;;;;;53.47;37.30;;;11.60;99.90;;;;;;5043377;28;20513;-63
2024/01/14 10:07:46;;;;;;;55.25;43.33;;;11.50;99.90;;;;;;5040733;28;20037;-63
2024/01/14 10:10:11;;;;;;;49.45;40.03;;;11.60;99.90;;;;;;5043990;28;20059;-64
2024/01/14 10:12:37;;;;;;;53.35;44.58;;;11.30;99.90;;;;;;5038997;28;20045;-64
2024/01/14 10:15:04;;;;;;;51.58;42.55;;;11.30;99.90;;;;;;5043203;28;20565;-65
2024/01/14 10:17:31;;;;;;;52.22;42.38;;;11.40;99.90;;;;;;5040439;28;20123;-64
2024/01/14 10:19:57;;;;;;;57.88;46.17;;;12.20;99.90;;;;;;5044816;28;20491;-63
2024/01/14 10:22:25;;;;;;;58.58;41.83;;;11.20;99.90;;;;;;5042905;28;20407;-65
2024/01/14 10:24:55;;;;;;;53.72;43.90;;;12.00;99.90;;;;;;5030163;28;20108;-64
2024/01/14 10:27:22;;;;;;;56.05;45.10;;;12.00;99.90;;;;;;5041439;28;20045;-63
2024/01/14 10:29:49;;;;;;;59.20;52.42;;;11.50;99.90;;;;;;5041091;28;20037;-63
2024/01/14 10:32:15;;;;;;;59.70;51.13;;;11.20;99.90;;;;;;5027227;28;20044;-64
2024/01/14 10:34:41;;;;;;;56.17;48.17;;;11.30;99.90;;;;;;5037590;28;20052;-63
2024/01/14 10:37:07;;;;;;;57.65;49.38;;;11.20;99.90;;;;;;5042879;28;20112;-63
2024/01/14 10:39:33;;;;;;;57.88;46.15;;;11.40;99.90;;;;;;5042921;28;20154;-64
2024/01/14 10:42:00;;;;;;;70.15;50.92;;;11.60;99.90;;;;;;5045127;28;20516;-64
2024/01/14 10:44:26;;;;;;;61.03;51.40;;;11.60;99.90;;;;;;5043227;28;20064;-63
2024/01/14 10:46:53;;;;;;;56.55;45.90;;;11.50;99.90;;;;;;5044575;28;20045;-64
2024/01/14 10:49:25;;;;;;;61.75;52.63;;;11.70;99.90;;;;;;5046640;28;20044;-64
2024/01/14 10:51:59;;;;;;;55.25;45.28;;;11.80;99.90;;;;;;5055124;28;20041;-65
2024/01/14 10:54:39;;;;;;;55.95;46.78;;;11.90;99.90;;;;;;5048158;28;20571;-64
2024/01/14 10:57:34;;;;;;;65.13;51.33;;;12.00;99.90;;;;;;5039027;28;20045;-64
2024/01/14 11:00:10;;;;;;;52.63;44.03;;;11.90;99.90;;;;;;5045475;28;20045;-65
2024/01/14 11:02:37;;;;;;;58.13;42.35;;;11.80;99.90;;;;;;5046140;28;20055;-64
2024/01/14 11:05:05;;;;;;;60.03;48.95;;;12.20;99.90;;;;;;5042043;28;20129;-63
2024/01/14 11:07:33;;;;;;;47.08;39.72;;;12.30;99.90;;;;;;5040538;28;20423;-63
2024/01/14 11:09:59;;;;;;;47.00;40.80;;;12.20;99.90;;;;;;5048149;28;20033;-65
2024/01/14 11:12:47;;;;;;;50.80;40.72;;;11.80;99.90;;;;;;5030836;28;20045;-64
2024/01/14 11:15:28;;;;;;;42.53;35.10;;;12.00;99.90;;;;;;5035328;28;20041;-64
2024/01/14 11:18:03;;;;;;;37.33;33.40;;;12.00;99.90;;;;;;5040878;28;20044;-63
2024/01/14 11:20:32;;;;;;;38.53;31.08;;;12.00;99.90;;;;;;5043993;28;20576;-63
2024/01/14 11:22:58;;;;;;;35.30;31.67;;;12.10;99.90;;;;;;5042410;28;20041;-63
2024/01/14 11:25:34;;;;;;;43.65;33.15;;;12.00;99.90;;;;;;5047889;28;20384;-64
2024/01/14 11:28:05;;;;;;;31.25;28.00;;;12.20;99.90;;;;;;5031719;28;21301;-63
2024/01/14 11:30:48;;;;;;;41.60;33.22;;;12.30;99.90;;;;;;5038486;28;20033;-63
2024/01/14 11:33:40;;;;;;;31.88;28.80;;;12.50;99.90;;;;;;5032478;28;20179;-64
2024/01/14 11:36:07;;;;;;;30.90;27.88;;;12.20;99.90;;;;;;5038488;28;20045;-64
2024/01/14 11:38:37;;;;;;;30.52;26.27;;;12.40;99.90;;;;;;5038129;28;20120;-64
2024/01/14 11:41:29;;;;;;;28.25;25.65;;;12.70;99.90;;;;;;5048713;28;20040;-64
2024/01/14 11:44:27;;;;;;;28.73;25.30;;;12.20;99.90;;;;;;5031565;28;20044;-64
2024/01/14 11:46:54;;;;;;;27.00;24.23;;;12.40;99.90;;;;;;5045951;28;20052;-64
2024/01/14 11:49:22;;;;;;;25.50;23.15;;;12.20;99.90;;;;;;5047038;28;20502;-64
2024/01/14 11:51:56;;;;;;;30.73;26.73;;;12.50;99.90;;;;;;5042488;28;20513;-65
2024/01/14 11:54:23;;;;;;;33.55;25.60;;;12.30;99.90;;;;;;5046734;28;20044;-63
2024/01/14 11:56:48;;;;;;;35.78;29.27;;;12.30;99.90;;;;;;5031579;28;20041;-64
2024/01/14 11:59:14;;;;;;;33.35;26.52;;;12.50;99.90;;;;;;5039463;28;20056;-64
2024/01/14 12:01:40;;;;;;;23.65;21.40;;;12.40;99.90;;;;;;5042777;28;20053;-64
2024/01/14 12:04:09;;;;;;;20.38;18.75;;;12.30;99.90;;;;;;5046043;28;20522;-64
2024/01/14 12:06:43;;;;;;;28.10;25.02;;;12.40;94.90;;;;;;5038298;28;20434;-63
2024/01/14 12:09:09;;;;;;;23.17;20.88;;;12.40;95.50;;;;;;5043136;28;20033;-63
2024/01/14 12:11:36;;;;;;;29.65;25.27;;;12.10;92.90;;;;;;5045693;28;20037;-64
2024/01/14 12:14:03;;;;;;;23.38;20.98;;;12.30;92.90;;;;;;5045846;28;20140;-62
2024/01/14 12:16:30;;;;;;;34.10;24.90;;;12.20;92.60;;;;;;5039879;28;20045;-64
2024/01/14 12:18:55;;;;;;;24.38;21.88;;;12.60;90.90;;;;;;5030963;28;20125;-64
2024/01/14 12:21:22;;;;;;;33.85;25.40;;;12.10;85.20;;;;;;5030563;28;20127;-62
2024/01/14 12:23:49;;;;;;;29.90;26.38;;;12.10;83.60;;;;;;5039882;28;20083;-64
2024/01/14 12:26:14;;;;;;;27.20;22.17;;;12.30;84.80;;;;;;5030540;28;20068;-64